Time;durP1;ratioP1;P1;durP2;ratioP2;P2;SDS_P1;SDS_P2;PMS_P1;PMS_P2;Temp;Humidity;BMP_temperature;BMP_pressure;BME280_temperature;BME280_humidity;BME280_pressure;Samples;Min_cycle;Max_cycle;Signal;HPM_P1;HPM_P2
2022/02/24 00:01:28;;;;;;;20.62;10.00;;;;;;;0.81;89.58;99956.31;1697570;84;21013;-80
2022/02/24 00:03:55;;;;;;;18.07;8.70;;;;;;;0.83;89.16;99961.06;1719339;82;21532;-80
2022/02/24 00:06:22;;;;;;;19.50;9.25;;;;;;;0.83;89.05;99961.92;1706579;84;21014;-80
2022/02/24 00:08:49;;;;;;;21.50;9.43;;;;;;;0.78;91.27;99969.90;1712634;83;21018;-81
2022/02/24 00:11:15;;;;;;;20.82;9.53;;;;;;;0.80;89.33;99963.13;1721077;83;21009;-81
2022/02/24 00:13:42;;;;;;;22.62;9.88;;;;;;;0.78;90.36;99964.78;1697588;84;20989;-80
2022/02/24 00:16:08;;;;;;;22.52;9.25;;;;;;;0.75;91.04;99959.56;1701937;84;21019;-79
2022/02/24 00:18:34;;;;;;;16.82;8.08;;;;;;;0.77;89.66;99960.05;1694077;84;21072;-81
2022/02/24 00:21:01;;;;;;;19.25;9.00;;;;;;;0.76;89.84;99960.89;1704403;84;21037;-79
2022/02/24 00:23:28;;;;;;;18.00;9.03;;;;;;;0.78;88.40;99953.27;1712178;83;21050;-81
2022/02/24 00:25:54;;;;;;;17.62;9.03;;;;;;;0.76;90.05;99958.75;1735902;83;21043;-81
2022/02/24 00:28:21;;;;;;;16.97;7.05;;;;;;;0.78;89.02;99966.06;1714904;83;20993;-80
2022/02/24 00:30:49;;;;;;;19.32;8.08;;;;;;;0.73;89.64;99962.48;1718013;83;21009;-80
2022/02/24 00:33:15;;;;;;;17.73;8.13;;;;;;;0.71;89.44;99970.12;1741016;81;21031;-79
2022/02/24 00:35:42;;;;;;;17.30;7.58;;;;;;;0.70;88.83;99977.36;1745140;81;21542;-80
2022/02/24 00:38:08;;;;;;;18.77;7.22;;;;;;;0.73;88.52;99972.30;1743290;82;21005;-80
2022/02/24 00:40:35;;;;;;;17.23;7.60;;;;;;;0.77;89.19;99971.56;1741344;82;21109;-79
2022/02/24 00:43:02;;;;;;;19.25;8.58;;;;;;;0.79;89.75;99972.48;1733878;82;21496;-81
2022/02/24 00:45:30;;;;;;;17.05;7.92;;;;;;;0.81;89.65;99961.01;1737376;82;21010;-79
2022/02/24 00:47:56;;;;;;;20.27;9.48;;;;;;;0.84;87.52;99962.81;1743474;82;21050;-82
2022/02/24 00:50:22;;;;;;;17.92;7.92;;;;;;;0.82;88.67;99967.88;1741887;82;21034;-82
2022/02/24 00:52:49;;;;;;;19.45;8.08;;;;;;;0.81;88.53;99969.97;1723305;82;21010;-82
2022/02/24 00:55:16;;;;;;;17.30;7.45;;;;;;;0.82;88.12;99970.83;1744985;82;21019;-81
2022/02/24 00:57:42;;;;;;;16.55;7.78;;;;;;;0.81;88.61;99966.55;1744549;82;21520;-83
2022/02/24 01:00:11;;;;;;;19.02;8.53;;;;;;;0.81;87.68;99966.55;1743966;82;20986;-82
2022/02/24 01:02:37;;;;;;;17.77;9.00;;;;;;;0.81;89.09;99966.12;1743369;81;21005;-82
2022/02/24 01:05:05;;;;;;;21.05;8.95;;;;;;;0.79;88.99;99971.62;1743880;82;20998;-82
2022/02/24 01:07:31;;;;;;;22.85;9.00;;;;;;;0.78;89.69;99965.64;1742279;82;21007;-83
2022/02/24 01:09:57;;;;;;;20.08;8.15;;;;;;;0.82;87.92;99969.55;1744605;79;21014;-82
2022/02/24 01:12:24;;;;;;;19.32;8.28;;;;;;;0.82;87.93;99978.13;1743700;82;20990;-82
2022/02/24 01:14:50;;;;;;;21.33;9.60;;;;;;;0.89;88.02;99977.45;1744030;82;21094;-82
2022/02/24 01:17:17;;;;;;;20.90;8.80;;;;;;;0.87;88.83;99971.84;1744759;82;21011;-82
2022/02/24 01:19:43;;;;;;;20.62;9.38;;;;;;;0.86;88.68;99969.70;1736071;82;21040;-82
2022/02/24 01:22:10;;;;;;;21.30;8.98;;;;;;;0.83;88.05;99967.04;1746145;82;20995;-82
2022/02/24 01:24:37;;;;;;;16.25;7.30;;;;;;;0.78;88.79;99972.04;1749799;82;20935;-82
2022/02/24 01:27:04;;;;;;;17.50;8.43;;;;;;;0.80;87.50;99970.81;1744729;82;21053;-82
2022/02/24 01:29:30;;;;;;;24.77;9.25;;;;;;;0.80;87.70;99975.93;1744651;82;21494;-82
2022/02/24 01:31:56;;;;;;;19.00;8.65;;;;;;;0.77;88.84;99977.11;1744330;82;21027;-82
2022/02/24 01:34:26;;;;;;;25.48;9.58;;;;;;;0.79;88.89;99968.64;1742091;81;20995;-81
2022/02/24 01:36:51;;;;;;;22.50;8.68;;;;;;;0.81;89.08;99966.12;1713311;83;21013;-79
2022/02/24 01:39:17;;;;;;;20.90;8.65;;;;;;;0.83;89.24;99962.34;1743129;82;21061;-79
2022/02/24 01:41:44;;;;;;;22.32;8.58;;;;;;;0.85;88.25;99970.92;1723405;82;21093;-79
2022/02/24 01:44:13;;;;;;;21.62;8.05;;;;;;;0.90;88.03;99975.36;1737693;82;21002;-80
2022/02/24 01:46:42;;;;;;;23.85;9.35;;;;;;;0.93;89.09;99978.41;1720700;82;21089;-79
2022/02/24 01:49:11;;;;;;;18.85;8.53;;;;;;;0.98;88.84;99975.58;1739612;82;21030;-80
2022/02/24 01:51:38;;;;;;;21.33;8.85;;;;;;;1.01;89.45;99972.22;1739201;82;21035;-81
2022/02/24 01:54:06;;;;;;;24.50;10.20;;;;;;;1.08;89.37;99976.70;1740027;82;21006;-81
2022/02/24 01:56:35;;;;;;;20.30;9.38;;;;;;;1.15;88.64;99975.63;1714568;82;21093;-80
2022/02/24 01:59:01;;;;;;;20.23;8.75;;;;;;;1.16;88.04;99983.75;1724716;82;21053;-80
2022/02/24 02:01:28;;;;;;;20.57;9.90;;;;;;;1.11;89.03;99971.22;1748249;82;20992;-80
2022/02/24 02:03:54;;;;;;;22.77;9.40;;;;;;;1.08;88.17;99970.30;1732733;82;21025;-80
2022/02/24 02:06:22;;;;;;;18.12;8.00;;;;;;;1.05;89.06;99981.72;1735033;82;21470;-79
2022/02/24 02:08:49;;;;;;;23.18;9.40;;;;;;;0.97;88.82;99980.22;1734671;82;21068;-81
2022/02/24 02:11:17;;;;;;;16.73;7.72;;;;;;;0.91;88.69;99977.50;1736598;83;21049;-81
2022/02/24 02:13:43;;;;;;;17.80;8.53;;;;;;;0.88;88.41;99974.45;1738776;82;21230;-81
2022/02/24 02:16:12;;;;;;;19.25;8.40;;;;;;;0.83;89.28;99980.26;1738341;83;21352;-82
2022/02/24 02:18:38;;;;;;;25.77;8.48;;;;;;;0.87;88.54;99979.52;1738692;82;21000;-80
2022/02/24 02:21:05;;;;;;;18.60;7.65;;;;;;;0.83;88.69;99984.95;1744092;82;21019;-79
2022/02/24 02:23:31;;;;;;;28.77;8.00;;;;;;;0.79;89.52;99975.45;1739831;82;20970;-80
2022/02/24 02:25:58;;;;;;;17.35;8.10;;;;;;;0.84;88.50;99980.31;1729132;82;21051;-79
2022/02/24 02:28:25;;;;;;;19.65;7.83;;;;;;;0.84;89.19;99979.03;1737376;82;21026;-80
2022/02/24 02:30:52;;;;;;;16.40;7.35;;;;;;;0.79;89.26;99981.86;1727074;83;21306;-80
2022/02/24 02:33:18;;;;;;;16.97;7.62;;;;;;;0.81;88.40;99986.61;1714295;84;20997;-81
2022/02/24 02:35:45;;;;;;;20.80;7.97;;;;;;;0.82;88.80;99998.98;1743346;81;21029;-80
2022/02/24 02:38:12;;;;;;;18.65;8.25;;;;;;;0.77;89.34;100000.14;1747190;82;21009;-79
2022/02/24 02:40:39;;;;;;;23.12;9.35;;;;;;;0.78;89.06;99999.34;1743809;82;21076;-79
2022/02/24 02:43:09;;;;;;;18.30;7.35;;;;;;;0.78;88.42;100004.45;1736551;82;20973;-80
2022/02/24 02:45:38;;;;;;;18.23;8.73;;;;;;;0.74;87.80;100007.33;1719630;82;21049;-79
2022/02/24 02:48:06;;;;;;;18.13;8.07;;;;;;;0.69;88.23;100014.41;1738094;81;21016;-80
2022/02/24 02:50:33;;;;;;;18.90;7.65;;;;;;;0.68;89.84;100019.09;1742745;82;21012;-81
2022/02/24 02:53:04;;;;;;;21.00;8.05;;;;;;;0.66;89.77;100017.77;1743129;82;21055;-81
2022/02/24 02:55:31;;;;;;;20.57;8.80;;;;;;;0.69;88.84;100027.21;1743743;82;21046;-79
2022/02/24 02:57:58;;;;;;;19.98;8.23;;;;;;;0.62;90.22;100024.89;1743628;82;21042;-79
2022/02/24 03:00:24;;;;;;;21.07;8.18;;;;;;;0.61;89.81;100022.28;1743828;82;21076;-79
2022/02/24 03:02:51;;;;;;;19.37;8.10;;;;;;;0.64;89.66;100028.36;1730938;82;21002;-79
2022/02/24 03:05:18;;;;;;;18.75;8.00;;;;;;;0.63;89.58;100029.17;1743433;81;21482;-80
2022/02/24 03:07:44;;;;;;;17.70;8.50;;;;;;;0.63;90.24;100037.27;1732596;82;21057;-80
2022/02/24 03:10:11;;;;;;;19.27;7.83;;;;;;;0.65;88.98;100032.64;1741465;82;21006;-79
2022/02/24 03:12:38;;;;;;;17.60;7.72;;;;;;;0.63;89.54;100034.71;1733082;82;21021;-78
2022/02/24 03:15:10;;;;;;;16.27;7.07;;;;;;;0.55;90.73;100028.08;1727086;82;21121;-80
2022/02/24 03:17:36;;;;;;;15.65;7.37;;;;;;;0.63;89.38;100033.02;1743034;82;21561;-78
2022/02/24 03:20:05;;;;;;;16.65;6.90;;;;;;;0.58;89.56;100039.28;1740482;82;21093;-79
2022/02/24 03:22:31;;;;;;;14.45;5.90;;;;;;;0.50;88.56;100040.74;1732194;82;21018;-80
2022/02/24 03:24:58;;;;;;;14.68;6.22;;;;;;;0.43;87.97;100041.36;1743950;82;21523;-80
2022/02/24 03:27:24;;;;;;;15.98;6.37;;;;;;;0.36;89.66;100044.16;1743062;82;21023;-80
2022/02/24 03:29:51;;;;;;;18.87;7.25;;;;;;;0.36;88.62;100052.25;1742497;82;21010;-80
2022/02/24 03:32:17;;;;;;;17.52;8.15;;;;;;;0.34;88.44;100059.00;1730712;82;20996;-80
2022/02/24 03:34:44;;;;;;;15.80;7.28;;;;;;;0.29;89.46;100057.56;1734444;82;21556;-79
2022/02/24 03:37:10;;;;;;;19.55;7.22;;;;;;;0.22;90.41;100063.70;1740138;82;21065;-79
2022/02/24 03:39:37;;;;;;;13.98;6.22;;;;;;;0.18;90.92;100064.91;1745247;82;21059;-81
2022/02/24 03:42:05;;;;;;;13.25;5.97;;;;;;;0.15;90.65;100067.34;1729932;82;21084;-80
2022/02/24 03:44:32;;;;;;;14.28;6.30;;;;;;;0.10;90.40;100066.35;1740472;82;21016;-80
2022/02/24 03:46:58;;;;;;;13.50;6.00;;;;;;;0.07;90.43;100069.20;1735285;82;21559;-79
2022/02/24 03:49:25;;;;;;;11.93;5.40;;;;;;;0.06;90.25;100071.29;1737467;82;20951;-80
2022/02/24 03:51:51;;;;;;;12.88;5.58;;;;;;;0.07;89.98;100076.46;1724943;82;21013;-78
2022/02/24 03:54:19;;;;;;;16.05;6.67;;;;;;;0.01;90.26;100069.88;1724879;82;21032;-79
2022/02/24 03:56:45;;;;;;;15.03;6.92;;;;;;;-0.02;90.24;100073.20;1725137;82;21025;-80
2022/02/24 03:59:12;;;;;;;24.25;6.97;;;;;;;-0.07;89.76;100078.98;1725060;82;20993;-80
2022/02/24 04:01:39;;;;;;;17.37;6.53;;;;;;;-0.09;89.85;100080.61;1729472;82;21029;-81
2022/02/24 04:04:05;;;;;;;14.03;5.92;;;;;;;-0.17;90.10;100084.61;1735670;82;21503;-82
2022/02/24 04:06:32;;;;;;;14.85;6.28;;;;;;;-0.24;89.86;100084.78;1743632;82;21038;-81
2022/02/24 04:08:58;;;;;;;15.85;6.58;;;;;;;-0.28;90.85;100087.67;1734238;82;21069;-82
2022/02/24 04:11:25;;;;;;;15.03;7.05;;;;;;;-0.27;91.26;100085.97;1745279;82;21068;-81
2022/02/24 04:13:52;;;;;;;18.80;7.12;;;;;;;-0.24;90.57;100083.12;1726352;82;21025;-82
2022/02/24 04:16:18;;;;;;;16.80;6.12;;;;;;;-0.17;90.36;100087.16;1726387;83;21013;-81
2022/02/24 04:18:45;;;;;;;26.77;5.83;;;;;;;-0.19;90.14;100088.37;1731900;80;20999;-81
2022/02/24 04:21:11;;;;;;;15.78;6.90;;;;;;;-0.18;90.21;100087.96;1746771;82;21002;-81
2022/02/24 04:23:38;;;;;;;19.77;6.10;;;;;;;-0.22;90.76;100086.98;1733157;80;20993;-81
2022/02/24 04:26:04;;;;;;;14.70;6.47;;;;;;;-0.22;90.79;100089.16;1747703;82;21042;-82
2022/02/24 04:28:30;;;;;;;20.27;7.20;;;;;;;-0.19;89.83;100090.07;1745603;82;21035;-81
2022/02/24 04:30:57;;;;;;;15.43;7.03;;;;;;;-0.23;91.11;100083.98;1726776;82;21002;-81
2022/02/24 04:33:23;;;;;;;15.88;6.37;;;;;;;-0.24;91.75;100086.95;1728092;82;21065;-81
2022/02/24 04:35:49;;;;;;;18.48;7.37;;;;;;;-0.19;91.45;100079.84;1728929;81;21397;-82
2022/02/24 04:38:16;;;;;;;19.87;7.28;;;;;;;-0.13;90.21;100081.33;1730823;83;21037;-81
2022/02/24 04:40:43;;;;;;;23.65;7.35;;;;;;;-0.10;90.25;100081.42;1730724;82;21060;-81
2022/02/24 04:43:09;;;;;;;17.07;6.72;;;;;;;-0.09;90.19;100084.45;1727497;82;21013;-79
2022/02/24 04:45:36;;;;;;;13.58;6.05;;;;;;;-0.06;90.05;100083.25;1742543;82;21491;-80
2022/02/24 04:48:02;;;;;;;14.30;6.45;;;;;;;-0.11;89.79;100085.67;1732761;81;21024;-79
2022/02/24 04:50:29;;;;;;;16.67;6.50;;;;;;;-0.21;90.83;100095.13;1718632;82;21046;-80
2022/02/24 04:52:55;;;;;;;14.30;5.60;;;;;;;-0.23;90.68;100095.48;1728737;82;21052;-80
2022/02/24 04:55:22;;;;;;;15.80;6.70;;;;;;;-0.21;89.01;100102.80;1729431;82;20997;-80
2022/02/24 04:57:49;;;;;;;14.28;5.67;;;;;;;-0.30;90.61;100104.63;1728369;82;21005;-80
2022/02/24 05:00:16;;;;;;;14.68;5.55;;;;;;;-0.33;91.40;100110.04;1728357;82;21073;-80
2022/02/24 05:02:42;;;;;;;20.02;6.15;;;;;;;-0.32;89.82;100113.94;1729413;83;21029;-79
2022/02/24 05:05:09;;;;;;;16.75;6.47;;;;;;;-0.40;91.38;100110.21;1715804;82;20986;-80
2022/02/24 05:07:35;;;;;;;18.75;6.35;;;;;;;-0.41;90.68;100109.77;1741707;82;21023;-79
2022/02/24 05:10:04;;;;;;;17.05;5.85;;;;;;;-0.46;91.69;100109.61;1735807;82;21005;-80
2022/02/24 05:12:31;;;;;;;18.73;6.62;;;;;;;-0.39;91.10;100114.94;1741784;81;21076;-79
2022/02/24 05:14:57;;;;;;;15.60;6.45;;;;;;;-0.35;90.56;100118.06;1728074;82;21572;-79
2022/02/24 05:17:24;;;;;;;21.25;7.83;;;;;;;-0.32;90.23;100121.59;1730228;83;21068;-80
2022/02/24 05:19:51;;;;;;;17.32;7.12;;;;;;;-0.35;90.41;100127.86;1698149;83;21086;-80
2022/02/24 05:22:17;;;;;;;17.02;7.15;;;;;;;-0.34;90.55;100131.28;1712224;82;21064;-79
2022/02/24 05:24:43;;;;;;;14.15;6.35;;;;;;;-0.36;90.92;100132.50;1728045;82;21530;-80
2022/02/24 05:27:10;;;;;;;20.77;5.95;;;;;;;-0.36;91.00;100135.05;1714019;82;20974;-79
2022/02/24 05:29:37;;;;;;;18.77;6.92;;;;;;;-0.35;90.54;100141.06;1732927;83;20999;-79
2022/02/24 05:32:05;;;;;;;21.73;7.35;;;;;;;-0.42;91.06;100146.34;1701020;83;21033;-80
2022/02/24 05:34:31;;;;;;;16.23;6.37;;;;;;;-0.40;91.08;100149.81;1730683;82;21020;-80
2022/02/24 05:36:58;;;;;;;14.98;6.70;;;;;;;-0.36;89.76;100155.50;1720854;82;21074;-79
2022/02/24 05:39:24;;;;;;;20.85;7.03;;;;;;;-0.53;89.91;100124.25;1715642;83;21024;-80
2022/02/24 05:41:52;;;;;;;14.28;5.65;;;;;;;-0.38;90.94;100160.09;1736226;83;21047;-80
2022/02/24 05:44:19;;;;;;;14.00;6.05;;;;;;;-0.33;90.57;100162.01;1708585;83;21025;-80
2022/02/24 05:46:46;;;;;;;21.57;6.58;;;;;;;-0.39;89.97;100158.38;1712996;84;20989;-81
2022/02/24 05:49:15;;;;;;;19.82;8.08;;;;;;;-0.43;90.44;100168.88;1715930;84;21045;-79
2022/02/24 05:51:42;;;;;;;17.23;6.47;;;;;;;-0.45;90.75;100176.48;1732541;82;21017;-80
2022/02/24 05:54:09;;;;;;;17.20;6.80;;;;;;;-0.43;90.12;100184.21;1737292;82;21001;-81
2022/02/24 05:56:36;;;;;;;21.12;6.70;;;;;;;-0.45;90.00;100176.48;1732887;83;20993;-81
2022/02/24 05:59:04;;;;;;;17.23;6.50;;;;;;;-0.46;89.85;100175.14;1735569;83;21491;-79
2022/02/24 06:01:31;;;;;;;24.63;7.22;;;;;;;-0.47;90.76;100186.20;1736868;83;21146;-78
2022/02/24 06:03:57;;;;;;;21.75;7.00;;;;;;;-0.53;91.34;100184.70;1734869;82;21007;-78
2022/02/24 06:06:23;;;;;;;19.40;6.78;;;;;;;-0.51;90.42;100186.90;1737548;83;20989;-79
2022/02/24 06:08:50;;;;;;;20.02;6.65;;;;;;;-0.52;90.52;100181.31;1737261;82;20991;-80
2022/02/24 06:11:16;;;;;;;16.82;6.87;;;;;;;-0.57;90.78;100183.70;1735619;83;21018;-79
2022/02/24 06:13:42;;;;;;;20.75;7.72;;;;;;;-0.50;90.71;100184.38;1737470;81;21036;-79
2022/02/24 06:16:09;;;;;;;23.18;7.40;;;;;;;-0.50;90.27;100188.63;1737813;82;21017;-81
2022/02/24 06:18:36;;;;;;;18.80;7.20;;;;;;;-0.49;90.87;100189.10;1738091;82;21001;-81
2022/02/24 06:21:02;;;;;;;18.42;6.78;;;;;;;-0.43;90.53;100196.98;1736068;82;21072;-80
2022/02/24 06:23:29;;;;;;;23.20;7.53;;;;;;;-0.41;90.89;100187.69;1714654;84;21606;-80
2022/02/24 06:25:55;;;;;;;22.65;8.18;;;;;;;-0.39;90.96;100191.17;1704975;84;21003;-79
2022/02/24 06:28:22;;;;;;;22.98;8.88;;;;;;;-0.30;90.66;100182.95;1731964;82;20958;-79
2022/02/24 06:30:48;;;;;;;28.67;10.28;;;;;;;-0.23;90.73;100188.34;1735069;83;21562;-80
2022/02/24 06:33:15;;;;;;;25.17;9.10;;;;;;;-0.18;90.54;100183.80;1706848;84;21032;-79
2022/02/24 06:35:41;;;;;;;19.80;8.20;;;;;;;-0.08;89.82;100182.03;1715291;84;20983;-81
2022/02/24 06:38:08;;;;;;;20.82;6.83;;;;;;;-0.05;89.76;100187.27;1731309;81;21371;-80
2022/02/24 06:40:34;;;;;;;21.70;6.87;;;;;;;-0.07;89.92;100187.20;1717146;84;21046;-81
2022/02/24 06:43:01;;;;;;;22.30;6.53;;;;;;;-0.06;89.64;100193.18;1716585;84;20998;-81
2022/02/24 06:45:27;;;;;;;20.37;7.25;;;;;;;-0.05;90.15;100192.38;1716914;82;21006;-79
2022/02/24 06:47:55;;;;;;;17.48;6.30;;;;;;;-0.03;90.11;100190.75;1716545;82;20974;-80
2022/02/24 06:50:21;;;;;;;19.77;7.25;;;;;;;-0.02;89.69;100198.86;1711215;82;21010;-79
2022/02/24 06:52:48;;;;;;;26.00;7.72;;;;;;;0.02;89.46;100193.45;1714964;84;20960;-81
2022/02/24 06:55:15;;;;;;;18.50;6.87;;;;;;;-0.04;90.00;100195.00;1726875;82;21520;-79
2022/02/24 06:57:50;;;;;;;20.43;7.03;;;;;;;0.00;90.32;100202.38;1746253;82;20980;-80
2022/02/24 07:00:18;;;;;;;19.30;7.50;;;;;;;0.01;90.09;100201.54;1716791;81;21239;-78
2022/02/24 07:02:45;;;;;;;27.02;8.23;;;;;;;0.02;90.22;100200.74;1721751;82;21532;-78
2022/02/24 07:05:12;;;;;;;29.15;8.83;;;;;;;0.05;90.21;100199.97;1744017;81;20979;-79
2022/02/24 07:07:39;;;;;;;21.00;7.42;;;;;;;0.09;90.47;100193.72;1741442;82;20982;-79
2022/02/24 07:10:11;;;;;;;23.75;7.67;;;;;;;0.08;90.29;100200.95;1746829;81;21126;-80
2022/02/24 07:12:40;;;;;;;19.30;7.25;;;;;;;0.06;89.33;100206.42;1713432;82;22215;-79
2022/02/24 07:15:08;;;;;;;21.57;7.67;;;;;;;0.07;89.59;100211.98;1727056;82;21039;-78
2022/02/24 07:17:47;;;;;;;24.40;7.92;;;;;;;0.07;90.38;100209.42;1744392;81;21568;-79
2022/02/24 07:20:17;;;;;;;24.02;8.20;;;;;;;0.11;90.31;100196.34;1730949;80;21110;-83
2022/02/24 07:26:11;;;;;;;22.02;7.53;;;;;;;0.31;89.76;100199.58;1699125;80;21182;31
2022/02/24 07:28:38;;;;;;;27.48;9.40;;;;;;;0.29;90.12;100204.64;1691525;85;21121;-83
2022/02/24 07:31:05;;;;;;;86.85;32.98;;;;;;;0.36;90.09;100207.88;1704907;81;21095;-83
2022/02/24 07:33:35;;;;;;;57.25;21.97;;;;;;;0.46;89.93;100205.61;1675787;83;21091;31
2022/02/24 07:36:02;;;;;;;33.20;13.93;;;;;;;0.40;89.84;100211.41;1696986;81;21203;-79
2022/02/24 07:38:29;;;;;;;30.75;10.82;;;;;;;0.37;89.32;100221.53;1697231;79;21157;-75
2022/02/24 07:40:55;;;;;;;20.85;7.85;;;;;;;0.40;89.13;100221.65;1707982;80;21035;-81
2022/02/24 07:43:22;;;;;;;21.82;7.75;;;;;;;0.43;89.11;100219.17;1715627;81;21550;-82
2022/02/24 07:48:59;;;;;;;19.30;7.45;;;;;;;0.45;89.41;100220.09;1701781;81;22967;-80
2022/02/24 07:51:26;;;;;;;20.30;6.95;;;;;;;0.59;89.58;100221.42;1697943;81;21071;-81
2022/02/24 07:54:16;;;;;;;23.02;7.45;;;;;;;0.75;89.48;100216.39;1697849;81;21127;-76
2022/02/24 08:02:41;;;;;;;23.20;8.45;;;;;;;1.06;88.12;100219.08;1676657;79;21141;-84
2022/02/24 08:05:11;;;;;;;21.40;8.20;;;;;;;1.11;88.04;100211.97;1687271;82;21115;-85
2022/02/24 08:07:38;;;;;;;17.00;6.60;;;;;;;1.18;87.58;100216.47;1691309;81;21034;-83
2022/02/24 08:10:06;;;;;;;23.62;7.45;;;;;;;1.22;87.11;100205.05;1687287;82;21027;-83
2022/02/24 08:15:23;;;;;;;21.00;7.25;;;;;;;1.37;86.76;100206.39;1652815;82;21134;-83
2022/02/24 08:23:51;;;;;;;22.33;8.13;;;;;;;1.52;86.46;100207.23;1667539;82;21157;31
2022/02/24 08:32:39;;;;;;;21.62;6.53;;;;;;;1.58;84.38;100215.52;1699725;81;21693;31
2022/02/24 08:35:08;;;;;;;19.15;7.47;;;;;;;1.51;84.31;100220.00;1677645;82;21063;-80
2022/02/24 08:37:35;;;;;;;20.32;7.65;;;;;;;1.41;84.63;100201.33;1691148;83;21288;-83
2022/02/24 08:42:51;;;;;;;24.60;8.05;;;;;;;1.56;85.47;100197.52;1704023;81;21118;-82
2022/02/24 08:45:21;;;;;;;21.15;7.60;;;;;;;1.74;84.79;100199.74;1697414;82;21126;-84
2022/02/24 08:51:04;;;;;;;16.97;6.87;;;;;;;1.68;84.59;100199.99;1706583;81;21284;-80
2022/02/24 09:02:34;;;;;;;19.00;7.15;;;;;;;1.93;85.23;100189.98;1680031;82;21122;-83
2022/02/24 09:05:01;;;;;;;20.85;7.83;;;;;;;2.16;85.25;100191.47;1712318;83;21040;-85
2022/02/24 09:07:28;;;;;;;23.20;8.05;;;;;;;2.24;84.49;100189.54;1714456;82;21056;-87
2022/02/24 09:09:55;;;;;;;19.52;8.93;;;;;;;2.29;84.52;100186.27;1717477;81;21173;-88
2022/02/24 09:12:21;;;;;;;21.15;8.68;;;;;;;2.33;83.36;100191.07;1735297;82;21023;-87
2022/02/24 09:14:48;;;;;;;27.40;9.68;;;;;;;2.51;84.17;100184.25;1707159;83;21040;-91
2022/02/24 09:17:14;;;;;;;27.15;9.08;;;;;;;2.60;83.38;100181.89;1673012;81;21121;-86
2022/02/24 09:19:43;;;;;;;21.40;9.00;;;;;;;2.69;82.94;100185.12;1709332;82;21020;-89
2022/02/24 09:22:12;;;;;;;25.48;9.38;;;;;;;2.66;82.74;100177.33;1704855;80;21672;-88
2022/02/24 09:24:42;;;;;;;19.02;8.38;;;;;;;2.69;82.29;100174.42;1691457;82;21159;-90
2022/02/24 09:27:09;;;;;;;25.82;9.48;;;;;;;2.75;82.33;100169.42;1709312;79;21020;-85
2022/02/24 09:29:37;;;;;;;22.48;8.55;;;;;;;2.73;82.23;100173.66;1693132;80;21049;-86
2022/02/24 09:32:06;;;;;;;22.87;8.43;;;;;;;2.71;82.47;100165.48;1663270;83;21032;-84
2022/02/24 09:34:32;;;;;;;20.50;7.33;;;;;;;2.74;82.02;100168.09;1672537;84;21016;-83
2022/02/24 09:36:59;;;;;;;17.10;7.40;;;;;;;2.74;82.32;100158.69;1669925;84;21028;-82
2022/02/24 09:39:26;;;;;;;14.58;6.92;;;;;;;2.80;82.73;100163.11;1737695;79;21098;-85
2022/02/24 09:41:53;;;;;;;19.67;7.17;;;;;;;2.93;82.63;100159.14;1776304;80;21034;-87
2022/02/24 09:44:20;;;;;;;16.48;8.23;;;;;;;3.09;83.07;100153.50;1739087;79;21151;-83
2022/02/24 09:46:48;;;;;;;21.40;8.20;;;;;;;3.25;82.17;100150.84;1739021;82;21091;-87
2022/02/24 09:49:17;;;;;;;20.50;8.33;;;;;;;3.41;81.53;100150.75;1724668;80;21075;-85
2022/02/24 09:51:45;;;;;;;17.52;8.78;;;;;;;3.71;81.52;100148.34;1732447;78;20994;-83
2022/02/24 09:54:13;;;;;;;22.42;8.63;;;;;;;3.91;80.16;100144.44;1719669;80;21093;-86
2022/02/24 09:56:42;;;;;;;20.57;8.15;;;;;;;4.02;79.01;100139.52;1657458;83;21053;-86
2022/02/24 09:59:10;;;;;;;19.75;8.18;;;;;;;4.13;79.73;100135.83;1698055;81;21094;-89
2022/02/24 10:01:39;;;;;;;19.75;8.63;;;;;;;4.15;79.00;100136.30;1677625;82;21108;-85
2022/02/24 10:04:06;;;;;;;19.07;8.25;;;;;;;4.22;79.31;100124.42;1675805;85;21038;-83
2022/02/24 10:06:43;;;;;;;21.02;9.13;;;;;;;4.07;77.50;100116.00;1686002;85;21049;-83
2022/02/24 10:09:13;;;;;;;19.25;8.65;;;;;;;4.08;79.05;100115.56;1653111;86;21069;-83
2022/02/24 10:11:40;;;;;;;21.15;8.30;;;;;;;4.06;78.56;100106.56;1652917;85;20988;-82
2022/02/24 10:14:20;;;;;;;19.05;7.67;;;;;;;4.16;79.04;100099.87;1648400;86;21052;-81
2022/02/24 10:17:02;;;;;;;18.87;8.40;;;;;;;4.18;78.54;100108.05;1651514;87;21050;-81
2022/02/24 10:19:47;;;;;;;21.40;8.13;;;;;;;4.22;78.65;100096.50;1682191;82;20959;-83
2022/02/24 10:22:24;;;;;;;25.27;7.95;;;;;;;4.13;78.82;100092.94;1713258;82;21041;-83
2022/02/24 10:25:05;;;;;;;25.37;9.70;;;;;;;4.21;79.31;100077.63;1715121;83;21125;-83
2022/02/24 10:27:35;;;;;;;21.00;8.65;;;;;;;4.32;79.37;100079.11;1722707;83;21046;-82
2022/02/24 10:30:14;;;;;;;13.22;5.80;;;;;;;4.49;79.22;100074.20;1690509;82;21037;-83
2022/02/24 10:32:46;;;;;;;21.75;8.38;;;;;;;4.59;78.89;100068.34;1703126;83;21132;-90
2022/02/24 10:35:39;;;;;;;17.80;7.87;;;;;;;4.72;78.51;100071.55;1698232;81;21105;-91
2022/02/24 10:38:10;;;;;;;15.15;7.03;;;;;;;4.91;78.63;100058.91;1747109;80;21094;-90
2022/02/24 10:40:46;;;;;;;17.02;7.65;;;;;;;5.01;76.42;100065.05;1747046;80;21003;-88
2022/02/24 10:43:26;;;;;;;14.58;6.78;;;;;;;5.11;77.21;100054.90;1752458;79;21021;-85
2022/02/24 10:46:06;;;;;;;19.87;7.75;;;;;;;5.25;76.22;100050.31;1761132;80;21018;-85
2022/02/24 10:48:50;;;;;;;24.50;7.97;;;;;;;5.31;74.95;100040.95;1711863;80;21123;-90
2022/02/24 10:51:37;;;;;;;21.07;7.75;;;;;;;5.54;75.73;100039.89;1705932;81;21086;-92
2022/02/24 10:54:13;;;;;;;20.20;6.05;;;;;;;5.71;74.85;100038.79;1657431;85;21068;-88
2022/02/24 10:56:43;;;;;;;14.83;6.50;;;;;;;5.87;73.79;100034.64;1689661;83;21351;-87
2022/02/24 10:59:16;;;;;;;14.35;6.75;;;;;;;5.96;71.38;100033.87;1677402;85;21071;-92
2022/02/24 11:01:40;;;;;;;12.33;5.75;;;;;;;5.94;72.12;100003.28;1733287;81;21101;-91
2022/02/24 11:04:08;;;;;;;13.10;6.00;;;;;;;6.32;73.09;100023.39;1718509;81;21383;-93
2022/02/24 11:06:37;;;;;;;15.95;5.75;;;;;;;6.45;69.06;100014.88;1691551;80;21215;-89
2022/02/24 11:09:07;;;;;;;16.27;6.47;;;;;;;6.59;69.46;100012.38;1685568;80;21103;-91
2022/02/24 11:11:36;;;;;;;19.82;6.53;;;;;;;6.78;71.42;100013.33;1700523;84;21771;-84
2022/02/24 11:14:08;;;;;;;13.05;6.12;;;;;;;6.91;68.76;100000.91;1696250;83;21079;-89
2022/02/24 11:16:34;;;;;;;12.98;5.80;;;;;;;7.15;71.55;99995.40;1719765;80;21108;-87
2022/02/24 11:19:02;;;;;;;16.62;6.53;;;;;;;7.42;70.31;100000.20;1689667;83;20989;-89
2022/02/24 11:21:30;;;;;;;13.13;5.78;;;;;;;7.67;67.76;99995.50;1703647;82;21009;-82
2022/02/24 11:23:58;;;;;;;14.40;5.85;;;;;;;7.87;68.12;99996.81;1734258;80;21099;-90
2022/02/24 11:26:32;;;;;;;15.68;6.20;;;;;;;8.13;67.20;99991.62;1717851;79;21234;-88
2022/02/24 11:29:05;;;;;;;;;;;;;;;8.39;66.40;99984.25;1712928;83;20976;-81
2022/02/24 11:34:04;;;;;;;12.18;5.30;;;;;;;8.88;63.94;99971.17;1746772;81;21019;-94
2022/02/24 11:39:19;;;;;;;13.28;5.75;;;;;;;9.16;62.19;99963.27;1683701;84;21023;-90
2022/02/24 11:41:55;;;;;;;11.08;2.90;;;;;;;9.36;62.44;99961.41;1702869;82;21097;-89
2022/02/24 11:44:36;;;;;;;8.98;3.08;;;;;;;9.61;60.66;99956.06;1708026;83;21068;-85
2022/02/24 11:47:09;;;;;;;9.08;3.45;;;;;;;9.81;54.71;99953.73;1746005;80;21034;-85
2022/02/24 11:50:00;;;;;;;11.95;4.55;;;;;;;10.03;54.68;99946.63;1703609;82;21103;-82
2022/02/24 11:52:30;;;;;;;7.17;2.75;;;;;;;10.35;53.29;99945.89;1635927;85;21056;-85
2022/02/24 11:54:58;;;;;;;7.62;2.55;;;;;;;10.83;48.96;99941.89;1711670;82;21088;-84
2022/02/24 11:57:34;;;;;;;9.08;2.77;;;;;;;11.52;47.12;99933.97;1735083;81;20971;-84
2022/02/24 12:00:18;;;;;;;9.58;3.35;;;;;;;12.46;50.30;99927.60;1745541;81;21003;-83
2022/02/24 12:02:46;;;;;;;8.28;4.35;;;;;;;13.59;49.31;99919.08;1730769;83;21011;-82
2022/02/24 12:05:26;;;;;;;11.68;4.05;;;;;;;14.79;51.18;99919.83;1732896;82;21006;-86
2022/02/24 12:08:06;;;;;;;16.37;7.80;;;;;;;15.80;47.10;99914.98;1732162;82;21051;-87
2022/02/24 12:10:46;;;;;;;33.00;14.18;;;;;;;16.70;39.31;99906.52;1731606;82;21013;-85
2022/02/24 12:13:32;;;;;;;22.10;6.10;;;;;;;17.41;44.22;99906.92;1732809;81;21023;-90
2022/02/24 12:16:20;;;;;;;10.38;3.20;;;;;;;18.26;44.33;99904.23;1734113;82;20987;-90
2022/02/24 12:18:49;;;;;;;12.98;6.15;;;;;;;18.82;36.17;99908.77;1734825;83;20975;-90
2022/02/24 12:21:36;;;;;;;8.38;3.75;;;;;;;19.33;36.75;99906.84;1748747;81;20977;-90